Time;durP1;ratioP1;P1;durP2;ratioP2;P2;SDS_P1;SDS_P2;PMS_P1;PMS_P2;Temp;Humidity;BMP_temperature;BMP_pressure;BME280_temperature;BME280_humidity;BME280_pressure;Samples;Min_cycle;Max_cycle;Signal;HPM_P1;HPM_P2
2022/06/02 00:00:51;;;;;;;16.42;14.77;;;;;;;;;;2063167;28;20619;-59
2022/06/02 00:02:00;;;;;;;16.88;15.20;;;;;;;;;;2066380;28;20173;-57
2022/06/02 00:03:19;;;;;;;15.50;13.93;;;;;;;;;;2066143;28;20674;-58
2022/06/02 00:04:23;;;;;;;15.77;14.27;;;;;;;;;;2064586;28;20193;-57
2022/06/02 00:05:50;;;;;;;15.10;13.65;;;;;;;;;;2065597;28;20263;-59
2022/06/02 00:07:09;;;;;;;16.42;14.82;;;;;;;;;;2070573;28;20158;-59
2022/06/02 00:08:16;;;;;;;16.52;14.93;;;;;;;;;;2066253;28;20177;-56
2022/06/02 00:09:36;;;;;;;15.82;14.13;;;;;;;;;;2066423;28;20165;-57
2022/06/02 00:10:42;;;;;;;16.88;15.07;;;;;;;;;;2066030;28;20280;-59
2022/06/02 00:11:57;;;;;;;15.98;14.48;;;;;;;;;;2065321;28;20249;-58
2022/06/02 00:13:24;;;;;;;16.27;14.60;;;;;;;;;;2065525;28;20260;-56
2022/06/02 00:14:29;;;;;;;15.40;13.90;;;;;;;;;;2064034;28;20658;-57
2022/06/02 00:15:41;;;;;;;16.88;15.23;;;;;;;;;;2065795;28;20594;-58
2022/06/02 00:16:50;;;;;;;15.98;14.52;;;;;;;;;;2066128;28;20178;-58
2022/06/02 00:18:17;;;;;;;15.85;14.30;;;;;;;;;;2066238;28;20154;-59
2022/06/02 00:19:27;;;;;;;15.75;14.35;;;;;;;;;;2064585;28;20215;-56
2022/06/02 00:20:37;;;;;;;15.30;13.80;;;;;;;;;;2065962;28;20212;-59
2022/06/02 00:21:50;;;;;;;16.30;14.80;;;;;;;;;;2066435;28;20177;-57
2022/06/02 00:23:09;;;;;;;16.10;14.50;;;;;;;;;;2065390;28;20212;-59
2022/06/02 00:24:18;;;;;;;15.50;14.00;;;;;;;;;;2064032;28;20305;-57
2022/06/02 00:25:26;;;;;;;16.52;14.90;;;;;;;;;;2058418;28;20154;-56
2022/06/02 00:26:49;;;;;;;16.20;14.70;;;;;;;;;;2066015;28;20174;-58
2022/06/02 00:28:07;;;;;;;16.85;15.05;;;;;;;;;;2065894;28;20168;-56
2022/06/02 00:29:07;;;;;;;16.60;14.63;;;;;;;;;;2065939;28;20170;-57
2022/06/02 00:30:17;;;;;;;16.55;14.88;;;;;;;;;;2065800;28;20182;-58
2022/06/02 00:31:36;;;;;;;17.70;15.88;;;;;;;;;;2065073;28;20662;-55
2022/06/02 00:32:43;;;;;;;16.00;14.50;;;;;;;;;;2065631;28;20184;-57
2022/06/02 00:33:46;;;;;;;16.38;14.77;;;;;;;;;;2065996;28;20186;-58
2022/06/02 00:34:50;;;;;;;15.50;14.00;;;;;;;;;;2064959;28;20330;-59
2022/06/02 00:35:57;;;;;;;16.73;15.10;;;;;;;;;;2065273;28;20170;-58
2022/06/02 00:37:17;;;;;;;16.38;14.73;;;;;;;;;;2065124;28;20273;-60
2022/06/02 00:38:36;;;;;;;16.75;15.05;;;;;;;;;;2063833;28;20646;-57
2022/06/02 00:39:38;;;;;;;16.73;15.02;;;;;;;;;;2061423;28;20209;-59
2022/06/02 00:40:38;;;;;;;17.50;15.77;;;;;;;;;;2065685;28;20647;-63
2022/06/02 00:41:41;;;;;;;17.02;15.27;;;;;;;;;;2065559;28;20174;-57
2022/06/02 00:42:48;;;;;;;15.68;14.20;;;;;;;;;;2065480;28;20754;-57
2022/06/02 00:43:54;;;;;;;17.30;15.50;;;;;;;;;;2065534;28;20777;-58
2022/06/02 00:45:11;;;;;;;15.80;14.20;;;;;;;;;;2065273;28;20853;-55
2022/06/02 00:46:12;;;;;;;17.25;15.60;;;;;;;;;;2065503;28;20188;-53
2022/06/02 00:47:29;;;;;;;16.27;14.65;;;;;;;;;;2065514;28;20178;-52
2022/06/02 00:48:48;;;;;;;17.00;15.32;;;;;;;;;;2078467;22;20201;-51
2022/06/02 00:49:48;;;;;;;16.98;14.90;;;;;;;;;;2072682;28;20190;-52
2022/06/02 00:50:53;;;;;;;16.38;14.70;;;;;;;;;;2072925;28;20680;-57
2022/06/02 00:52:08;;;;;;;16.33;14.80;;;;;;;;;;2073580;28;20184;-51
2022/06/02 00:53:14;;;;;;;17.73;15.77;;;;;;;;;;2073133;28;20192;-51
2022/06/02 00:58:28;;;;;;;19.15;16.13;;;;;;;;;;2075057;28;20180;-49
2022/06/02 00:59:33;;;;;;;18.45;16.50;;;;;;;;;;2081746;28;20180;-51
2022/06/02 01:00:36;;;;;;;19.20;16.85;;;;;;;;;;2081858;28;20228;-51
2022/06/02 01:01:37;;;;;;;19.40;17.25;;;;;;;;;;2081791;28;20180;-51
2022/06/02 01:02:40;;;;;;;20.58;17.00;;;;;;;;;;2081708;28;20172;-49
2022/06/02 01:03:42;;;;;;;17.10;15.30;;;;;;;;;;2079477;28;20231;-52
2022/06/02 01:04:43;;;;;;;18.38;16.55;;;;;;;;;;2080249;28;20175;-51
2022/06/02 01:05:52;;;;;;;17.85;16.02;;;;;;;;;;2080337;28;20247;-49
2022/06/02 01:07:00;;;;;;;18.67;16.15;;;;;;;;;;2081557;28;20169;-51
2022/06/02 01:08:03;;;;;;;18.25;16.35;;;;;;;;;;2081142;28;20165;-52
2022/06/02 01:09:21;;;;;;;19.35;17.35;;;;;;;;;;2080845;28;20202;-53
2022/06/02 01:10:30;;;;;;;18.20;16.05;;;;;;;;;;2081716;28;20609;-51
2022/06/02 01:11:46;;;;;;;20.30;17.98;;;;;;;;;;2081474;28;20275;-52
2022/06/02 01:12:53;;;;;;;17.35;15.65;;;;;;;;;;2082037;28;20207;-55
2022/06/02 01:14:14;;;;;;;20.13;17.55;;;;;;;;;;2078505;28;20174;-51
2022/06/02 01:15:32;;;;;;;19.58;16.15;;;;;;;;;;2061687;28;20948;-52
2022/06/02 01:16:33;;;;;;;17.30;15.50;;;;;;;;;;2081777;28;20187;-52
2022/06/02 01:17:39;;;;;;;20.60;15.80;;;;;;;;;;2081957;28;20188;-47
2022/06/02 01:18:48;;;;;;;19.60;17.55;;;;;;;;;;2080961;28;20692;-53
2022/06/02 01:19:55;;;;;;;18.65;16.65;;;;;;;;;;2073785;28;20181;-54
2022/06/02 01:21:10;;;;;;;19.05;17.02;;;;;;;;;;2074083;28;20164;-52
2022/06/02 01:22:25;;;;;;;16.92;15.23;;;;;;;;;;2073617;28;20188;-53
2022/06/02 01:23:44;;;;;;;19.27;15.98;;;;;;;;;;2080813;28;20195;-51
2022/06/02 01:25:03;;;;;;;17.60;15.77;;;;;;;;;;2073674;28;20271;-50
2022/06/02 01:26:03;;;;;;;19.25;16.65;;;;;;;;;;2081364;28;20653;-49
2022/06/02 01:27:27;;;;;;;17.65;15.75;;;;;;;;;;2081632;28;20176;-51
2022/06/02 01:28:46;;;;;;;16.95;15.18;;;;;;;;;;2078406;28;20191;-53
2022/06/02 01:30:05;;;;;;;17.95;16.02;;;;;;;;;;2072857;28;20173;-50
2022/06/02 01:31:06;;;;;;;17.50;15.65;;;;;;;;;;2076906;28;20188;-51
2022/06/02 01:32:10;;;;;;;18.40;16.50;;;;;;;;;;2081607;28;20165;-49
2022/06/02 01:33:19;;;;;;;18.42;16.52;;;;;;;;;;2081887;28;20653;-49
2022/06/02 01:34:23;;;;;;;18.98;17.08;;;;;;;;;;2080833;28;20153;-52
2022/06/02 01:35:33;;;;;;;19.52;17.55;;;;;;;;;;2079455;28;20175;-51
2022/06/02 01:36:33;;;;;;;20.75;18.55;;;;;;;;;;2081583;28;20187;-50
2022/06/02 01:37:39;;;;;;;20.75;17.80;;;;;;;;;;2081685;28;20174;-50
2022/06/02 01:38:53;;;;;;;22.88;19.48;;;;;;;;;;2081495;28;20334;-53
2022/06/02 01:40:06;;;;;;;22.38;18.02;;;;;;;;;;2079971;28;20294;-55
2022/06/02 01:41:06;;;;;;;26.45;20.98;;;;;;;;;;2074293;28;20255;-52
2022/06/02 01:42:26;;;;;;;24.63;20.80;;;;;;;;;;2081037;28;20612;-53
2022/06/02 01:43:57;;;;;;;24.80;21.15;;;;;;;;;;2081619;28;20245;-53
2022/06/02 01:44:58;;;;;;;22.45;19.08;;;;;;;;;;2071663;28;20642;-52
2022/06/02 01:46:10;;;;;;;27.25;22.88;;;;;;;;;;2083397;28;21915;-50
2022/06/02 01:47:30;;;;;;;26.17;22.20;;;;;;;;;;2080674;28;20661;-50
2022/06/02 01:48:50;;;;;;;27.23;22.33;;;;;;;;;;2080869;28;20206;-52
2022/06/02 01:50:05;;;;;;;25.83;22.77;;;;;;;;;;2081214;28;20199;-48
2022/06/02 01:51:08;;;;;;;27.08;22.23;;;;;;;;;;2081508;28;20167;-49
2022/06/02 01:52:23;;;;;;;31.83;23.55;;;;;;;;;;2080970;28;20196;-52
2022/06/02 01:53:39;;;;;;;29.00;23.23;;;;;;;;;;2080800;28;20184;-49
2022/06/02 01:54:50;;;;;;;30.92;23.73;;;;;;;;;;2080786;28;20164;-52
2022/06/02 01:55:50;;;;;;;33.03;25.00;;;;;;;;;;2089102;28;20167;-52
2022/06/02 01:57:00;;;;;;;29.33;23.17;;;;;;;;;;2088347;28;20174;-53
2022/06/02 01:58:20;;;;;;;31.63;23.15;;;;;;;;;;2081291;28;20649;-51
2022/06/02 01:59:21;;;;;;;29.73;23.20;;;;;;;;;;2081056;28;20214;-55
2022/06/02 02:00:23;;;;;;;30.40;23.17;;;;;;;;;;2081349;28;20180;-49
2022/06/02 02:01:47;;;;;;;31.05;24.05;;;;;;;;;;2081639;28;20179;-47
2022/06/02 02:02:53;;;;;;;31.50;24.33;;;;;;;;;;2082093;28;20156;-49
2022/06/02 02:03:55;;;;;;;29.08;22.52;;;;;;;;;;2081960;28;20230;-51
2022/06/02 02:05:04;;;;;;;27.30;22.92;;;;;;;;;;2081984;28;20179;-52
2022/06/02 02:06:18;;;;;;;28.95;22.73;;;;;;;;;;2082780;28;20169;-48
2022/06/02 02:07:24;;;;;;;28.17;23.98;;;;;;;;;;2082353;28;20176;-48
2022/06/02 02:08:38;;;;;;;34.65;26.77;;;;;;;;;;2081943;28;20164;-54
2022/06/02 02:09:50;;;;;;;32.78;23.80;;;;;;;;;;2076934;28;20279;-53
2022/06/02 02:10:53;;;;;;;26.60;21.65;;;;;;;;;;2082011;28;20184;-48
2022/06/02 02:11:56;;;;;;;29.17;23.38;;;;;;;;;;2081457;28;20194;-53
2022/06/02 02:13:02;;;;;;;27.38;22.70;;;;;;;;;;2081929;28;20637;-51
2022/06/02 02:14:12;;;;;;;29.20;22.42;;;;;;;;;;2080676;28;20156;-51
2022/06/02 02:15:30;;;;;;;32.80;24.23;;;;;;;;;;2081469;28;20173;-50
2022/06/02 02:16:31;;;;;;;30.77;24.85;;;;;;;;;;2081606;28;20149;-48
2022/06/02 02:17:40;;;;;;;31.77;24.70;;;;;;;;;;2081876;28;20169;-49
2022/06/02 02:18:49;;;;;;;29.17;23.30;;;;;;;;;;2081430;28;20199;-54
2022/06/02 02:20:07;;;;;;;30.92;23.60;;;;;;;;;;2081493;28;20165;-45
2022/06/02 02:21:20;;;;;;;30.83;24.27;;;;;;;;;;2081083;28;20168;-47
2022/06/02 02:22:27;;;;;;;29.20;23.15;;;;;;;;;;2081075;28;20672;-51
2022/06/02 02:23:41;;;;;;;34.25;26.35;;;;;;;;;;2081323;28;20196;-55
2022/06/02 02:25:00;;;;;;;34.67;25.05;;;;;;;;;;2080650;28;20185;-50
2022/06/02 02:26:00;;;;;;;34.28;25.50;;;;;;;;;;2081514;28;20168;-52
2022/06/02 02:27:14;;;;;;;32.28;23.98;;;;;;;;;;2081672;28;20192;-50
2022/06/02 02:28:30;;;;;;;31.10;23.88;;;;;;;;;;2081298;28;20149;-48
2022/06/02 02:29:42;;;;;;;33.65;25.50;;;;;;;;;;2079906;28;20190;-49
2022/06/02 02:30:45;;;;;;;33.92;25.65;;;;;;;;;;2080731;28;20256;-48
2022/06/02 02:31:50;;;;;;;36.55;26.55;;;;;;;;;;2081216;28;20172;-52
2022/06/02 02:33:10;;;;;;;36.05;26.50;;;;;;;;;;2081160;28;20183;-53
2022/06/02 02:34:18;;;;;;;32.35;25.27;;;;;;;;;;2081186;28;20214;-47
2022/06/02 02:35:23;;;;;;;31.55;24.70;;;;;;;;;;2083128;28;20164;-50
2022/06/02 02:36:32;;;;;;;33.72;25.10;;;;;;;;;;2082541;28;20192;-54
2022/06/02 02:37:52;;;;;;;32.05;24.60;;;;;;;;;;2081155;28;20160;-50
2022/06/02 02:39:07;;;;;;;32.25;24.85;;;;;;;;;;2081667;28;20200;-52
2022/06/02 02:40:13;;;;;;;30.27;24.25;;;;;;;;;;2082190;28;20168;-55
2022/06/02 02:41:25;;;;;;;35.45;26.90;;;;;;;;;;2082543;28;20188;-54
2022/06/02 02:42:37;;;;;;;30.88;22.88;;;;;;;;;;2082124;28;20157;-50
2022/06/02 02:43:44;;;;;;;35.35;26.30;;;;;;;;;;2082907;28;20317;-53
2022/06/02 02:44:50;;;;;;;36.33;26.50;;;;;;;;;;2082171;28;20164;-50
2022/06/02 02:45:51;;;;;;;34.40;25.90;;;;;;;;;;2082323;28;20172;-50
2022/06/02 02:47:01;;;;;;;34.92;26.95;;;;;;;;;;2082649;28;20177;-53
2022/06/02 02:48:15;;;;;;;37.05;26.42;;;;;;;;;;2084403;28;20160;-46
2022/06/02 02:49:26;;;;;;;39.80;28.52;;;;;;;;;;2083944;28;20186;-48
2022/06/02 02:50:26;;;;;;;38.22;27.70;;;;;;;;;;2082922;28;20215;-50
2022/06/02 02:51:39;;;;;;;34.15;27.17;;;;;;;;;;2082767;28;20183;-52
2022/06/02 02:52:42;;;;;;;37.88;27.38;;;;;;;;;;2082968;28;20222;-51
2022/06/02 02:53:47;;;;;;;40.97;28.30;;;;;;;;;;2082437;28;20553;-51
2022/06/02 02:54:56;;;;;;;45.95;30.70;;;;;;;;;;2081799;28;20207;-50
2022/06/02 02:56:04;;;;;;;38.85;28.50;;;;;;;;;;2082187;28;20172;-51
2022/06/02 02:57:13;;;;;;;46.35;32.63;;;;;;;;;;2078487;28;20181;-54
2022/06/02 02:58:13;;;;;;;46.60;32.65;;;;;;;;;;2074343;28;20184;-50
2022/06/02 02:59:33;;;;;;;48.72;31.55;;;;;;;;;;2082060;28;20241;-53
2022/06/02 03:00:40;;;;;;;49.53;32.22;;;;;;;;;;2074702;28;20212;-48
2022/06/02 03:01:59;;;;;;;44.00;30.48;;;;;;;;;;2075634;28;20847;-50
2022/06/02 03:03:04;;;;;;;43.45;30.17;;;;;;;;;;2082181;28;20165;-49
2022/06/02 03:04:28;;;;;;;46.40;30.23;;;;;;;;;;2081119;28;20231;-49
2022/06/02 03:05:33;;;;;;;50.63;32.17;;;;;;;;;;2074336;28;20187;-50
2022/06/02 03:06:36;;;;;;;44.93;30.93;;;;;;;;;;2090161;28;20214;-53
2022/06/02 03:07:36;;;;;;;43.72;30.17;;;;;;;;;;2081907;28;20183;-50
2022/06/02 03:08:55;;;;;;;41.47;30.10;;;;;;;;;;2081971;28;20696;-48
2022/06/02 03:10:05;;;;;;;40.20;28.50;;;;;;;;;;2081844;28;20636;-49
2022/06/02 03:11:17;;;;;;;40.78;28.63;;;;;;;;;;2082296;28;20226;-49
2022/06/02 03:12:20;;;;;;;40.03;28.63;;;;;;;;;;2082419;28;20148;-55
2022/06/02 03:13:32;;;;;;;42.15;30.98;;;;;;;;;;2082979;28;20179;-49
2022/06/02 03:14:56;;;;;;;43.65;29.70;;;;;;;;;;2082029;28;20649;-48
2022/06/02 03:15:59;;;;;;;38.92;30.25;;;;;;;;;;2082484;28;20176;-50
2022/06/02 03:17:26;;;;;;;45.08;31.55;;;;;;;;;;2083015;28;20157;-49
2022/06/02 03:18:45;;;;;;;43.25;31.05;;;;;;;;;;2086703;28;20268;-48
2022/06/02 03:19:48;;;;;;;43.78;30.08;;;;;;;;;;2082274;28;20258;-48
2022/06/02 03:20:57;;;;;;;46.67;32.15;;;;;;;;;;2082726;28;20711;-48
2022/06/02 03:22:04;;;;;;;48.20;32.47;;;;;;;;;;2082599;28;20164;-52
2022/06/02 03:23:07;;;;;;;47.70;33.10;;;;;;;;;;2082713;28;20164;-53
2022/06/02 03:24:29;;;;;;;49.35;33.50;;;;;;;;;;2081880;28;20678;-51
2022/06/02 03:25:31;;;;;;;52.67;33.63;;;;;;;;;;2083213;28;20260;-49
2022/06/02 03:26:52;;;;;;;51.70;33.53;;;;;;;;;;2082539;28;20211;-48
2022/06/02 03:28:11;;;;;;;48.75;33.92;;;;;;;;;;2073090;28;20880;-51
2022/06/02 03:29:30;;;;;;;50.97;34.75;;;;;;;;;;2082523;28;20175;-52
2022/06/02 03:30:34;;;;;;;47.05;33.80;;;;;;;;;;2082431;28;20848;-51
2022/06/02 03:31:40;;;;;;;54.63;35.95;;;;;;;;;;2082444;28;20255;-51
2022/06/02 03:32:45;;;;;;;50.72;32.67;;;;;;;;;;2082595;28;20168;-48
2022/06/02 03:34:07;;;;;;;52.85;33.85;;;;;;;;;;2082102;28;20636;-48
2022/06/02 03:35:26;;;;;;;47.15;32.42;;;;;;;;;;2076538;28;20188;-48
2022/06/02 03:36:29;;;;;;;47.10;32.80;;;;;;;;;;2082047;28;20168;-49
2022/06/02 03:37:41;;;;;;;48.20;31.90;;;;;;;;;;2074565;28;20259;-49
2022/06/02 03:38:50;;;;;;;43.22;31.20;;;;;;;;;;2074518;28;20203;-51
2022/06/02 03:40:11;;;;;;;47.70;31.35;;;;;;;;;;2081695;28;20164;-52
2022/06/02 03:41:23;;;;;;;47.45;31.33;;;;;;;;;;2071748;28;20188;-55
2022/06/02 03:42:42;;;;;;;44.25;31.27;;;;;;;;;;2082538;28;20165;-54
2022/06/02 03:43:42;;;;;;;47.85;33.83;;;;;;;;;;2082251;28;20192;-49
2022/06/02 03:44:48;;;;;;;45.38;32.63;;;;;;;;;;2081558;28;20203;-49
2022/06/02 03:45:59;;;;;;;46.60;33.90;;;;;;;;;;2082322;28;20181;-51
2022/06/02 03:47:09;;;;;;;57.00;34.83;;;;;;;;;;2082533;28;20256;-53
2022/06/02 03:48:27;;;;;;;47.03;32.10;;;;;;;;;;2082528;28;20219;-52
2022/06/02 03:49:54;;;;;;;47.45;30.50;;;;;;;;;;2082344;28;20743;-50
2022/06/02 03:50:54;;;;;;;50.08;32.65;;;;;;;;;;2082386;28;20157;-48
2022/06/02 03:51:54;;;;;;;48.72;34.15;;;;;;;;;;2082376;28;20271;-51
2022/06/02 03:53:04;;;;;;;47.72;33.05;;;;;;;;;;2082460;28;20160;-50
2022/06/02 03:54:13;;;;;;;50.70;32.88;;;;;;;;;;2080619;28;20180;-51
2022/06/02 03:55:29;;;;;;;52.80;32.15;;;;;;;;;;2081758;28;20331;-52
2022/06/02 03:56:35;;;;;;;47.17;32.90;;;;;;;;;;2082462;28;20588;-46
2022/06/02 03:57:53;;;;;;;44.00;31.52;;;;;;;;;;2082233;28;20180;-52
2022/06/02 03:58:54;;;;;;;48.40;32.03;;;;;;;;;;2081253;28;20203;-46
2022/06/02 04:00:14;;;;;;;52.55;34.08;;;;;;;;;;2082044;28;20188;-50
2022/06/02 04:01:18;;;;;;;44.25;30.67;;;;;;;;;;2082344;28;20180;-54
2022/06/02 04:02:28;;;;;;;50.53;32.97;;;;;;;;;;2082224;28;20256;-52
2022/06/02 04:03:38;;;;;;;48.53;30.40;;;;;;;;;;2082254;28;20206;-50
2022/06/02 04:04:43;;;;;;;46.90;30.63;;;;;;;;;;2081011;28;20532;-50
2022/06/02 04:05:49;;;;;;;43.45;30.20;;;;;;;;;;2082212;28;20184;-49
2022/06/02 04:07:01;;;;;;;43.17;28.08;;;;;;;;;;2081574;28;20678;-54
2022/06/02 04:08:13;;;;;;;40.05;28.77;;;;;;;;;;2081622;28;20195;-50
2022/06/02 04:09:16;;;;;;;36.85;26.98;;;;;;;;;;2082329;28;20180;-49
2022/06/02 04:10:32;;;;;;;37.97;29.10;;;;;;;;;;2081965;28;20581;-54
2022/06/02 04:13:37;;;;;;;39.67;29.92;;;;;;;;;;2082402;28;20168;-50
2022/06/02 04:14:56;;;;;;;41.40;29.48;;;;;;;;;;2080905;28;20188;-47
2022/06/02 04:16:14;;;;;;;42.38;29.30;;;;;;;;;;2082362;28;20306;-50
2022/06/02 04:17:26;;;;;;;41.13;28.85;;;;;;;;;;2082184;28;20191;-49
2022/06/02 04:18:36;;;;;;;45.40;31.60;;;;;;;;;;2082130;28;20298;-49
2022/06/02 04:21:08;;;;;;;43.10;30.58;;;;;;;;;;2083801;28;20649;-53
2022/06/02 04:22:11;;;;;;;44.63;31.85;;;;;;;;;;2083867;28;20190;-52
2022/06/02 04:23:31;;;;;;;43.70;31.52;;;;;;;;;;2083306;28;20176;-49
2022/06/02 04:24:37;;;;;;;45.10;31.10;;;;;;;;;;2081619;28;20203;-52
2022/06/02 04:25:52;;;;;;;42.25;29.17;;;;;;;;;;2074788;28;20157;-52
2022/06/02 04:27:01;;;;;;;40.85;28.88;;;;;;;;;;2074539;28;20174;-50
2022/06/02 04:28:07;;;;;;;35.85;27.40;;;;;;;;;;2074389;28;20161;-54
2022/06/02 04:29:19;;;;;;;43.47;29.38;;;;;;;;;;2074347;28;20276;-54
2022/06/02 04:30:20;;;;;;;41.13;28.70;;;;;;;;;;2080769;28;20676;-53
2022/06/02 04:31:28;;;;;;;39.33;28.45;;;;;;;;;;2082370;28;20210;-56
2022/06/02 04:32:41;;;;;;;35.35;26.77;;;;;;;;;;2083031;28;20187;-48
2022/06/02 04:33:45;;;;;;;38.60;27.63;;;;;;;;;;2082364;28;20580;-48
2022/06/02 04:35:06;;;;;;;35.38;27.70;;;;;;;;;;2081519;28;20226;-50
2022/06/02 04:36:25;;;;;;;40.03;28.85;;;;;;;;;;2082648;28;20260;-49
2022/06/02 04:37:41;;;;;;;34.03;26.17;;;;;;;;;;2082196;28;20177;-51
2022/06/02 04:38:41;;;;;;;35.25;26.35;;;;;;;;;;2082647;28;20282;-49
2022/06/02 04:39:50;;;;;;;32.70;26.00;;;;;;;;;;2081613;28;20175;-52
2022/06/02 04:41:09;;;;;;;34.10;26.90;;;;;;;;;;2082143;28;20710;-51
2022/06/02 04:42:09;;;;;;;33.67;23.92;;;;;;;;;;2081924;28;20167;-53
2022/06/02 04:43:15;;;;;;;35.00;26.05;;;;;;;;;;2081616;28;20572;-50
2022/06/02 04:44:38;;;;;;;33.83;25.52;;;;;;;;;;2081576;28;20222;-56
2022/06/02 04:45:44;;;;;;;28.95;23.75;;;;;;;;;;2082141;28;20238;-50
2022/06/02 04:46:50;;;;;;;32.38;25.17;;;;;;;;;;2082284;28;20191;-48
2022/06/02 04:47:51;;;;;;;33.33;25.27;;;;;;;;;;2082209;28;20534;-49
2022/06/02 04:49:01;;;;;;;32.80;25.08;;;;;;;;;;2081854;28;20204;-53
2022/06/02 04:50:09;;;;;;;34.63;24.98;;;;;;;;;;2081792;28;20668;-52
2022/06/02 04:51:12;;;;;;;34.38;25.48;;;;;;;;;;2082456;28;20172;-52
2022/06/02 04:52:31;;;;;;;31.40;24.50;;;;;;;;;;2081893;28;20223;-48
2022/06/02 04:53:46;;;;;;;31.35;24.25;;;;;;;;;;2081831;28;20172;-49
2022/06/02 04:54:46;;;;;;;29.77;24.00;;;;;;;;;;2080737;28;20266;-51
2022/06/02 04:55:58;;;;;;;30.40;23.33;;;;;;;;;;2081857;28;20168;-51
2022/06/02 04:57:19;;;;;;;29.33;24.23;;;;;;;;;;2081975;28;20191;-52
2022/06/02 04:58:38;;;;;;;31.10;24.95;;;;;;;;;;2081804;28;20157;-49
2022/06/02 04:59:46;;;;;;;29.58;23.95;;;;;;;;;;2081621;28;20180;-48
2022/06/02 05:00:59;;;;;;;29.67;24.27;;;;;;;;;;2081838;28;20218;-50
2022/06/02 05:02:05;;;;;;;32.08;23.67;;;;;;;;;;2081926;28;20271;-53
2022/06/02 05:03:21;;;;;;;29.40;23.83;;;;;;;;;;2081772;28;20196;-51
2022/06/02 05:04:21;;;;;;;29.25;23.10;;;;;;;;;;2081183;28;20180;-50
2022/06/02 05:05:40;;;;;;;29.98;24.08;;;;;;;;;;2081603;28;20165;-50
2022/06/02 05:06:45;;;;;;;28.63;22.50;;;;;;;;;;2081500;28;20219;-50
2022/06/02 05:08:04;;;;;;;29.17;23.58;;;;;;;;;;2081532;28;20743;-52
2022/06/02 05:09:19;;;;;;;29.40;23.23;;;;;;;;;;2081789;28;20222;-51
2022/06/02 05:10:23;;;;;;;28.08;22.77;;;;;;;;;;2081970;28;20179;-49
2022/06/02 05:11:24;;;;;;;29.17;23.85;;;;;;;;;;2081787;28;20169;-49
2022/06/02 05:12:32;;;;;;;29.25;24.17;;;;;;;;;;2080376;28;20170;-52
2022/06/02 05:13:38;;;;;;;28.98;23.83;;;;;;;;;;2077625;28;20169;-53
2022/06/02 05:14:54;;;;;;;28.60;23.52;;;;;;;;;;2080957;28;20184;-55
2022/06/02 05:16:03;;;;;;;28.02;22.10;;;;;;;;;;2073105;28;20294;-49
2022/06/02 05:17:06;;;;;;;30.13;23.83;;;;;;;;;;2073046;28;20672;-54
2022/06/02 05:18:25;;;;;;;30.30;23.35;;;;;;;;;;2076444;28;20175;-47
2022/06/02 05:19:32;;;;;;;25.80;22.60;;;;;;;;;;2081542;28;20187;-52
2022/06/02 05:21:00;;;;;;;28.50;23.20;;;;;;;;;;2081545;28;20199;-48
2022/06/02 05:22:26;;;;;;;24.90;22.20;;;;;;;;;;2081371;28;20208;-49
2022/06/02 05:23:49;;;;;;;24.65;21.02;;;;;;;;;;2063863;28;20647;-50
2022/06/02 05:25:13;;;;;;;23.85;21.20;;;;;;;;;;2074874;28;20180;-49
2022/06/02 05:26:24;;;;;;;26.33;21.60;;;;;;;;;;2073833;28;20173;-54
2022/06/02 05:27:43;;;;;;;24.58;21.15;;;;;;;;;;2081733;28;20164;-52
2022/06/02 05:29:02;;;;;;;23.73;20.95;;;;;;;;;;2081859;28;20652;-55
2022/06/02 05:30:02;;;;;;;27.08;21.67;;;;;;;;;;2081772;28;20175;-52
2022/06/02 05:31:21;;;;;;;27.80;22.90;;;;;;;;;;2081938;28;20163;-53
2022/06/02 05:32:40;;;;;;;23.70;20.65;;;;;;;;;;2081670;28;20183;-56
2022/06/02 05:33:58;;;;;;;25.90;21.42;;;;;;;;;;2081545;28;20247;-48
2022/06/02 05:35:17;;;;;;;25.13;20.92;;;;;;;;;;2081407;28;20567;-51
2022/06/02 05:36:24;;;;;;;23.20;20.55;;;;;;;;;;2081613;28;20194;-50
2022/06/02 05:37:44;;;;;;;28.40;21.75;;;;;;;;;;2081875;28;20873;-52
2022/06/02 05:39:03;;;;;;;26.38;22.20;;;;;;;;;;2080344;28;20202;-52
2022/06/02 05:40:12;;;;;;;24.50;21.92;;;;;;;;;;2073345;28;20181;-51
2022/06/02 05:41:21;;;;;;;25.45;21.38;;;;;;;;;;2073684;28;20240;-51
2022/06/02 05:42:22;;;;;;;26.13;21.60;;;;;;;;;;2072867;28;20236;-52
2022/06/02 05:43:29;;;;;;;27.42;22.73;;;;;;;;;;2073490;28;20224;-49
2022/06/02 05:44:35;;;;;;;23.38;19.15;;;;;;;;;;2071823;28;20173;-48
2022/06/02 05:45:42;;;;;;;26.70;21.88;;;;;;;;;;2075305;28;20184;-53
2022/06/02 05:46:54;;;;;;;24.85;21.65;;;;;;;;;;2081745;28;20685;-52
2022/06/02 05:47:57;;;;;;;23.70;20.38;;;;;;;;;;2083376;28;20168;-54
2022/06/02 05:49:00;;;;;;;26.17;21.02;;;;;;;;;;2084751;28;20275;-51
2022/06/02 05:50:21;;;;;;;21.98;19.58;;;;;;;;;;2080041;28;20169;-53
2022/06/02 05:51:38;;;;;;;21.85;19.55;;;;;;;;;;2049524;28;20672;-53
2022/06/02 05:52:57;;;;;;;23.33;18.67;;;;;;;;;;2081779;28;20769;-52
2022/06/02 05:54:21;;;;;;;21.45;18.40;;;;;;;;;;2081298;28;20180;-47
2022/06/02 05:55:28;;;;;;;20.95;18.65;;;;;;;;;;2080738;28;20163;-51
2022/06/02 05:56:53;;;;;;;23.83;17.77;;;;;;;;;;2077836;28;20235;-51
2022/06/02 05:58:04;;;;;;;20.92;18.60;;;;;;;;;;2080680;28;20315;-55
2022/06/02 05:59:07;;;;;;;20.05;17.50;;;;;;;;;;2074678;28;20201;-52
2022/06/02 06:00:16;;;;;;;19.00;17.05;;;;;;;;;;2076142;28;20660;-52
2022/06/02 06:01:32;;;;;;;65.68;24.02;;;;;;;;;;2078695;28;20188;-51
2022/06/02 06:02:41;;;;;;;18.98;16.42;;;;;;;;;;2079870;28;20168;-56
2022/06/02 06:04:00;;;;;;;21.48;18.55;;;;;;;;;;2079537;28;20293;-55
2022/06/02 06:05:18;;;;;;;18.80;16.55;;;;;;;;;;2081088;28;20700;-56
2022/06/02 06:06:28;;;;;;;18.88;16.60;;;;;;;;;;2084849;28;20164;-48
2022/06/02 06:07:48;;;;;;;18.45;16.60;;;;;;;;;;2073532;28;20224;-52
2022/06/02 06:09:06;;;;;;;20.50;16.42;;;;;;;;;;2073105;28;20184;-55
2022/06/02 06:10:12;;;;;;;16.75;15.05;;;;;;;;;;2073186;28;20191;-54
2022/06/02 06:11:12;;;;;;;17.00;15.30;;;;;;;;;;2073456;28;20259;-52
2022/06/02 06:12:31;;;;;;;17.67;14.75;;;;;;;;;;2073471;28;20176;-54
2022/06/02 06:13:50;;;;;;;16.27;14.68;;;;;;;;;;2073405;28;20165;-50
2022/06/02 06:14:59;;;;;;;15.80;14.10;;;;;;;;;;2072666;28;20180;-54
2022/06/02 06:16:03;;;;;;;16.38;14.65;;;;;;;;;;2080681;28;20172;-50
2022/06/02 06:17:22;;;;;;;14.68;13.20;;;;;;;;;;2081129;28;20164;-50
2022/06/02 06:18:28;;;;;;;15.70;13.27;;;;;;;;;;2074997;28;20557;-53
2022/06/02 06:19:28;;;;;;;14.48;12.98;;;;;;;;;;2080909;28;20172;-48
2022/06/02 06:20:37;;;;;;;14.93;13.38;;;;;;;;;;2081670;28;20263;-50
2022/06/02 06:21:40;;;;;;;14.23;12.82;;;;;;;;;;2081082;28;20160;-50
2022/06/02 06:22:40;;;;;;;16.02;13.77;;;;;;;;;;2082812;28;20219;-49
2022/06/02 06:23:46;;;;;;;13.80;12.32;;;;;;;;;;2081724;28;20196;-47
2022/06/02 06:24:54;;;;;;;13.82;12.40;;;;;;;;;;2082144;28;20196;-53
2022/06/02 06:26:13;;;;;;;12.85;11.55;;;;;;;;;;2080483;28;20184;-49
2022/06/02 06:27:20;;;;;;;11.63;10.43;;;;;;;;;;2077370;28;20210;-51
2022/06/02 06:28:23;;;;;;;10.77;9.80;;;;;;;;;;2080849;28;20175;-53
2022/06/02 06:29:35;;;;;;;11.57;10.48;;;;;;;;;;2080187;28;20180;-54
2022/06/02 06:30:44;;;;;;;9.93;9.02;;;;;;;;;;2074689;28;20173;-54
2022/06/02 06:32:02;;;;;;;11.18;10.00;;;;;;;;;;2074785;28;20619;-49
2022/06/02 06:33:15;;;;;;;12.18;9.90;;;;;;;;;;2079500;28;20191;-50
2022/06/02 06:34:23;;;;;;;12.38;9.65;;;;;;;;;;2081652;28;20192;-54
2022/06/02 06:35:30;;;;;;;11.57;10.30;;;;;;;;;;2083068;28;20162;-51
2022/06/02 06:36:51;;;;;;;10.73;9.63;;;;;;;;;;2082121;28;20180;-46
2022/06/02 06:38:01;;;;;;;10.20;9.30;;;;;;;;;;2074565;28;20683;-55
2022/06/02 06:39:04;;;;;;;10.18;8.75;;;;;;;;;;2078295;28;20192;-49
2022/06/02 06:40:24;;;;;;;11.88;9.85;;;;;;;;;;2083310;28;20180;-51
2022/06/02 06:41:37;;;;;;;10.20;9.27;;;;;;;;;;2082398;28;20275;-49
2022/06/02 06:42:42;;;;;;;10.20;8.93;;;;;;;;;;2082798;28;20271;-52
2022/06/02 06:43:53;;;;;;;12.10;9.45;;;;;;;;;;2082691;28;20196;-48
2022/06/02 06:45:00;;;;;;;11.63;9.52;;;;;;;;;;2081676;28;20540;-49
2022/06/02 06:46:08;;;;;;;9.48;8.65;;;;;;;;;;2083539;28;20184;-53
2022/06/02 06:47:17;;;;;;;9.82;8.85;;;;;;;;;;2082988;28;20164;-55
2022/06/02 06:48:25;;;;;;;11.32;10.23;;;;;;;;;;2082790;28;20185;-49
2022/06/02 06:49:33;;;;;;;10.10;9.10;;;;;;;;;;2084069;28;20172;-52
2022/06/02 06:50:52;;;;;;;10.75;9.75;;;;;;;;;;2082508;28;20176;-55
2022/06/02 06:52:11;;;;;;;17.58;9.57;;;;;;;;;;2082532;28;20547;-55
2022/06/02 06:53:23;;;;;;;28.23;10.63;;;;;;;;;;2082191;28;20541;-50
2022/06/02 06:54:26;;;;;;;13.57;9.63;;;;;;;;;;2080347;28;20215;-49
2022/06/02 06:55:49;;;;;;;9.57;8.73;;;;;;;;;;2079911;28;20642;-48
2022/06/02 06:56:54;;;;;;;11.82;9.05;;;;;;;;;;2081928;28;20172;-48
2022/06/02 06:58:18;;;;;;;9.30;8.48;;;;;;;;;;2077814;28;20568;-54
2022/06/02 06:59:29;;;;;;;9.60;8.00;;;;;;;;;;2065496;28;20189;-50
2022/06/02 07:00:36;;;;;;;9.77;7.85;;;;;;;;;;2078629;28;20192;-51